Time;durP1;ratioP1;P1;durP2;ratioP2;P2;SDS_P1;SDS_P2;PMS_P1;PMS_P2;Temp;Humidity;BMP_temperature;BMP_pressure;BME280_temperature;BME280_humidity;BME280_pressure;Samples;Min_cycle;Max_cycle;Signal;HPM_P1;HPM_P2
2021/06/04 00:02:26;;;;;;;86.47;44.00;;;;;;;16.75;100.00;101448.44;4932716;29;20044;-59
2021/06/04 00:04:54;;;;;;;72.13;37.70;;;;;;;16.77;100.00;101449.13;4934340;29;20040;-58
2021/06/04 00:07:22;;;;;;;82.75;41.80;;;;;;;16.76;100.00;101450.13;4932378;29;20328;-59
2021/06/04 00:09:49;;;;;;;80.97;42.53;;;;;;;16.77;100.00;101454.50;4936701;29;20043;-59
2021/06/04 00:12:17;;;;;;;91.40;46.83;;;;;;;16.79;100.00;101451.63;4930770;29;20040;-59
2021/06/04 00:14:44;;;;;;;84.60;45.58;;;;;;;16.74;100.00;101457.59;4936380;29;20050;-59
2021/06/04 00:17:15;;;;;;;82.45;42.25;;;;;;;17.01;100.00;101456.06;4931898;29;20376;-59
2021/06/04 00:19:43;;;;;;;81.65;44.42;;;;;;;16.78;100.00;101450.75;4936786;29;20054;-59
2021/06/04 00:22:15;;;;;;;91.07;47.20;;;;;;;16.82;100.00;101441.28;4930113;29;20047;-59
2021/06/04 00:24:44;;;;;;;80.15;45.70;;;;;;;16.81;100.00;101442.31;4935445;29;20043;-59
2021/06/04 00:27:13;;;;;;;79.03;41.63;;;;;;;16.67;100.00;101448.56;4929230;29;20052;-59
2021/06/04 00:29:42;;;;;;;78.40;40.67;;;;;;;16.62;100.00;101429.44;4933112;29;20051;-59
2021/06/04 00:32:10;;;;;;;96.72;46.80;;;;;;;16.62;100.00;101440.22;4932979;29;20051;-59
2021/06/04 00:34:40;;;;;;;81.80;42.40;;;;;;;16.69;100.00;101435.72;4937269;29;20043;-59
2021/06/04 00:37:08;;;;;;;78.70;41.58;;;;;;;16.59;100.00;101451.38;4931327;29;20328;-59
2021/06/04 00:39:40;;;;;;;76.90;40.80;;;;;;;16.73;100.00;101450.50;4936147;29;20074;-59
2021/06/04 00:42:12;;;;;;;77.85;40.17;;;;;;;16.69;100.00;101454.63;4932563;29;20233;-59
2021/06/04 00:44:40;;;;;;;93.53;46.47;;;;;;;16.44;100.00;101454.06;4934950;29;20331;-59
2021/06/04 00:47:09;;;;;;;88.65;44.42;;;;;;;16.43;100.00;101453.25;4933667;29;20052;-59
2021/06/04 00:49:36;;;;;;;88.70;46.33;;;;;;;16.37;100.00;101450.44;4932767;29;20090;-60
2021/06/04 00:52:08;;;;;;;92.60;47.85;;;;;;;16.27;100.00;101450.72;4936581;29;20308;-59
2021/06/04 00:54:35;;;;;;;100.47;50.38;;;;;;;16.23;100.00;101452.13;4933250;29;20055;-59
2021/06/04 00:57:04;;;;;;;91.22;47.67;;;;;;;16.30;100.00;101455.72;4929032;29;20043;-59
2021/06/04 00:59:36;;;;;;;99.68;50.97;;;;;;;16.26;100.00;101451.72;4934186;29;20344;-59
2021/06/04 01:02:05;;;;;;;88.07;45.90;;;;;;;16.49;100.00;101459.75;4930684;29;20216;-59
2021/06/04 01:04:33;;;;;;;94.45;46.58;;;;;;;16.37;100.00;101459.34;4937012;29;20508;-59
2021/06/04 01:07:04;;;;;;;91.65;46.72;;;;;;;16.37;100.00;101461.22;4931810;28;20056;-60
2021/06/04 01:09:54;;;;;;;83.18;45.13;;;;;;;16.21;100.00;101465.78;4933638;29;20435;-60
2021/06/04 01:12:41;;;;;;;85.38;45.05;;;;;;;16.17;100.00;101459.94;4929305;29;20086;-59
2021/06/04 01:15:13;;;;;;;102.20;49.92;;;;;;;16.10;100.00;101461.66;4929169;29;20091;-59
2021/06/04 01:17:45;;;;;;;96.10;46.65;;;;;;;16.10;100.00;101448.19;4934136;29;20043;-59
2021/06/04 01:20:16;;;;;;;106.15;50.80;;;;;;;16.12;100.00;101464.19;4930866;29;20435;-59
2021/06/04 01:22:59;;;;;;;96.22;47.63;;;;;;;16.04;100.00;101459.72;4934845;29;20075;-59
2021/06/04 01:25:38;;;;;;;101.35;49.83;;;;;;;16.00;100.00;101456.56;4932179;29;20364;-59
2021/06/04 01:28:11;;;;;;;101.55;50.40;;;;;;;16.01;100.00;101452.00;4930643;29;20047;-59
2021/06/04 01:30:41;;;;;;;103.90;50.13;;;;;;;16.01;100.00;101460.91;4934853;29;20353;-59
2021/06/04 01:33:14;;;;;;;97.75;47.55;;;;;;;16.20;100.00;101464.09;4937018;29;20043;-60
2021/06/04 01:35:44;;;;;;;107.50;52.55;;;;;;;16.09;100.00;101473.47;4929460;29;20048;-59
2021/06/04 01:38:13;;;;;;;103.97;49.40;;;;;;;16.13;100.00;101474.78;4929817;29;20070;-59
2021/06/04 01:40:45;;;;;;;101.38;48.25;;;;;;;16.24;100.00;101470.78;4938486;29;20042;-59
2021/06/04 01:43:15;;;;;;;86.05;48.05;;;;;;;16.49;100.00;101473.22;4931248;29;20111;-59
2021/06/04 01:45:46;;;;;;;94.47;45.25;;;;;;;16.45;100.00;101477.31;4930122;29;20043;-59
2021/06/04 01:48:15;;;;;;;102.97;50.70;;;;;;;16.44;100.00;101472.94;4931324;29;20055;-60
2021/06/04 01:50:46;;;;;;;92.63;47.78;;;;;;;16.50;100.00;101478.44;4936072;29;20054;-59
2021/06/04 01:53:17;;;;;;;95.07;50.15;;;;;;;16.55;100.00;101471.66;4934726;29;20099;-59
2021/06/04 01:55:49;;;;;;;98.88;50.05;;;;;;;16.49;100.00;101473.22;4929539;29;20035;-59
2021/06/04 01:58:19;;;;;;;103.38;50.17;;;;;;;16.39;100.00;101472.66;4931619;29;20059;-59
2021/06/04 02:00:50;;;;;;;102.53;48.38;;;;;;;16.37;100.00;101469.31;4933604;29;20466;-59
2021/06/04 02:03:20;;;;;;;86.45;44.70;;;;;;;16.30;100.00;101470.06;4939594;29;20351;-59
2021/06/04 02:05:48;;;;;;;85.80;44.63;;;;;;;16.36;100.00;101473.88;4928590;29;20047;-59
2021/06/04 02:08:19;;;;;;;100.63;51.05;;;;;;;16.33;100.00;101468.84;4937779;29;20047;-59
2021/06/04 02:10:51;;;;;;;100.57;48.92;;;;;;;16.25;100.00;101474.34;4934981;29;20439;-58
2021/06/04 02:13:18;;;;;;;83.40;42.00;;;;;;;16.45;100.00;101463.84;4930457;29;20102;-59
2021/06/04 02:15:48;;;;;;;82.53;41.22;;;;;;;16.39;100.00;101468.13;4932427;29;20043;-59
2021/06/04 02:18:20;;;;;;;91.35;45.55;;;;;;;16.12;100.00;101475.81;4932528;29;20079;-59
2021/06/04 02:20:54;;;;;;;85.13;44.65;;;;;;;16.12;100.00;101472.28;4939962;29;20040;-59
2021/06/04 02:23:25;;;;;;;88.50;44.55;;;;;;;16.17;100.00;101480.63;4937380;29;20047;-59
2021/06/04 02:26:01;;;;;;;84.50;42.78;;;;;;;16.26;100.00;101476.00;4933893;29;20039;-59
2021/06/04 02:28:31;;;;;;;99.03;47.55;;;;;;;16.08;100.00;101474.50;4935795;29;20099;-59
2021/06/04 02:31:06;;;;;;;91.50;45.97;;;;;;;16.22;100.00;101463.91;4935451;29;20060;-59
2021/06/04 02:33:38;;;;;;;84.65;43.88;;;;;;;16.42;100.00;101459.66;4939756;29;20044;-59
2021/06/04 02:36:09;;;;;;;72.90;40.78;;;;;;;16.36;100.00;101449.63;4932497;29;20058;-60
2021/06/04 02:38:41;;;;;;;83.70;42.42;;;;;;;16.10;100.00;101453.56;4936012;29;20450;-59
2021/06/04 02:41:12;;;;;;;85.32;44.67;;;;;;;15.97;100.00;101453.38;4936725;29;20336;-60
2021/06/04 02:43:43;;;;;;;87.13;44.50;;;;;;;15.87;100.00;101466.28;4934955;29;20047;-59
2021/06/04 02:46:14;;;;;;;92.03;46.38;;;;;;;15.95;100.00;101461.66;4934229;29;20050;-59
2021/06/04 02:48:44;;;;;;;101.93;47.53;;;;;;;16.08;100.00;101466.41;4938616;29;20035;-59
2021/06/04 02:51:14;;;;;;;99.93;50.00;;;;;;;16.18;100.00;101463.44;4933063;29;20055;-60
2021/06/04 02:53:49;;;;;;;106.18;51.70;;;;;;;16.05;100.00;101464.09;4937484;29;20333;-59
2021/06/04 02:56:23;;;;;;;112.30;52.10;;;;;;;15.97;100.00;101469.56;4932528;29;20419;-59
2021/06/04 02:58:53;;;;;;;101.30;47.47;;;;;;;16.07;100.00;101464.72;4934555;29;20363;-59
2021/06/04 03:01:22;;;;;;;118.00;54.67;;;;;;;15.90;100.00;101457.84;4936754;29;20044;-59
2021/06/04 03:03:52;;;;;;;118.30;55.35;;;;;;;15.97;100.00;101459.59;4936012;29;20066;-59
2021/06/04 03:06:25;;;;;;;99.43;48.17;;;;;;;16.14;100.00;101452.19;4933582;29;20055;-59
2021/06/04 03:08:52;;;;;;;97.30;49.03;;;;;;;16.04;100.00;101454.31;4937375;29;20048;-59
2021/06/04 03:11:21;;;;;;;103.50;51.15;;;;;;;15.90;100.00;101461.34;4933946;29;20349;-60
2021/06/04 03:13:49;;;;;;;111.50;50.78;;;;;;;15.78;100.00;101463.63;4942483;29;20176;-59
2021/06/04 03:16:19;;;;;;;113.85;52.55;;;;;;;15.65;100.00;101460.72;4935420;29;20040;-59
2021/06/04 03:18:49;;;;;;;108.95;52.38;;;;;;;15.62;100.00;101451.16;4937293;29;20127;-59
2021/06/04 03:21:21;;;;;;;98.22;48.47;;;;;;;15.90;100.00;101452.44;4936776;29;20153;-59
2021/06/04 03:23:48;;;;;;;91.93;47.22;;;;;;;15.92;100.00;101447.69;4936435;29;20098;-59
2021/06/04 03:26:21;;;;;;;103.85;50.58;;;;;;;15.77;100.00;101439.59;4937005;29;20039;-59
2021/06/04 03:28:51;;;;;;;88.03;46.58;;;;;;;15.70;100.00;101442.16;4934933;29;20044;-59
2021/06/04 03:31:20;;;;;;;98.10;49.40;;;;;;;15.73;100.00;101438.28;4933340;29;20091;-59
2021/06/04 03:33:47;;;;;;;114.40;53.97;;;;;;;15.91;100.00;101438.81;4940442;29;20046;-59
2021/06/04 03:36:18;;;;;;;104.30;52.45;;;;;;;15.87;100.00;101440.19;4933238;29;20047;-59
2021/06/04 03:38:46;;;;;;;101.78;48.05;;;;;;;15.74;100.00;101442.63;4934051;29;20478;-59
2021/06/04 03:41:19;;;;;;;109.88;50.38;;;;;;;15.66;100.00;101424.69;4936035;29;20094;-60
2021/06/04 03:43:48;;;;;;;100.18;50.20;;;;;;;15.61;100.00;101427.09;4933860;29;20371;-60
2021/06/04 03:46:17;;;;;;;129.82;59.53;;;;;;;15.59;100.00;101418.34;4936554;29;20455;-59
2021/06/04 03:48:45;;;;;;;110.28;52.20;;;;;;;15.58;100.00;101416.69;4934639;29;20049;-59
2021/06/04 03:51:15;;;;;;;115.78;54.70;;;;;;;15.53;100.00;101413.72;4936298;29;20055;-59
2021/06/04 03:53:43;;;;;;;112.15;53.63;;;;;;;15.58;100.00;101416.69;4937615;29;20126;-60
2021/06/04 03:56:12;;;;;;;121.05;55.45;;;;;;;15.69;100.00;101427.00;4935391;29;20466;-60
2021/06/04 03:58:41;;;;;;;131.65;60.25;;;;;;;15.76;100.00;101424.44;4934210;29;20415;-60
2021/06/04 04:01:12;;;;;;;113.57;51.75;;;;;;;15.77;100.00;101428.81;4932129;29;20055;-60
2021/06/04 04:03:42;;;;;;;135.38;60.10;;;;;;;15.56;100.00;101419.56;4937591;29;20055;-59
2021/06/04 04:06:10;;;;;;;117.68;55.58;;;;;;;15.57;100.00;101420.41;4932118;29;20362;-59
2021/06/04 04:08:37;;;;;;;115.45;52.90;;;;;;;15.65;100.00;101436.50;4934682;29;20040;-59
2021/06/04 04:11:05;;;;;;;102.63;50.88;;;;;;;15.66;100.00;101435.47;4940718;29;20044;-60
2021/06/04 04:13:33;;;;;;;132.85;58.03;;;;;;;15.47;100.00;101434.94;4934253;29;20047;-59
2021/06/04 04:16:01;;;;;;;117.70;53.22;;;;;;;15.39;100.00;101436.88;4932556;29;20052;-61
2021/06/04 04:18:28;;;;;;;109.00;51.22;;;;;;;15.52;100.00;101444.34;4934023;29;20054;-59
2021/06/04 04:21:00;;;;;;;98.00;47.88;;;;;;;15.90;100.00;101450.59;4938049;29;20309;-59
2021/06/04 04:23:29;;;;;;;101.13;46.10;;;;;;;16.01;100.00;101452.00;4934020;29;20271;-60
2021/06/04 04:25:57;;;;;;;88.65;44.45;;;;;;;16.22;100.00;101463.91;4934267;29;20335;-60
2021/06/04 04:28:26;;;;;;;86.50;44.38;;;;;;;16.25;100.00;101460.88;4937142;29;20059;-59
2021/06/04 04:30:53;;;;;;;90.30;45.38;;;;;;;16.48;100.00;101464.28;4934698;29;20044;-60
2021/06/04 04:33:22;;;;;;;96.78;48.53;;;;;;;16.31;100.00;101460.09;4934040;29;20428;-60
2021/06/04 04:35:49;;;;;;;94.68;44.72;;;;;;;16.50;100.00;101467.66;4931149;29;20047;-60
2021/06/04 04:38:20;;;;;;;96.03;47.03;;;;;;;16.52;100.00;101468.28;4929409;29;20047;-60
2021/06/04 04:40:50;;;;;;;94.70;48.25;;;;;;;16.60;100.00;101470.06;4940551;29;20054;-60
2021/06/04 04:43:18;;;;;;;92.93;48.03;;;;;;;16.65;100.00;101470.31;4927669;28;20051;-60
2021/06/04 04:45:47;;;;;;;87.90;45.15;;;;;;;16.65;100.00;101469.50;4929472;29;20043;-60
2021/06/04 04:48:14;;;;;;;90.55;43.85;;;;;;;16.63;100.00;101464.28;4936213;29;20040;-59
2021/06/04 04:50:41;;;;;;;86.13;41.70;;;;;;;16.60;100.00;101470.06;4931162;29;20043;-60
2021/06/04 04:53:09;;;;;;;77.30;41.00;;;;;;;16.73;100.00;101464.00;4931597;29;20147;-59
2021/06/04 04:55:40;;;;;;;84.45;43.97;;;;;;;16.72;100.00;101461.50;4927697;29;20079;-60
2021/06/04 04:58:08;;;;;;;78.68;41.60;;;;;;;16.73;100.00;101468.53;4920351;29;20395;-59
2021/06/04 05:00:36;;;;;;;81.63;39.78;;;;;;;16.79;100.00;101460.53;4934493;29;20382;-60
2021/06/04 05:03:05;;;;;;;84.43;42.35;;;;;;;16.94;100.00;101457.00;4931039;29;20051;-60
2021/06/04 05:05:32;;;;;;;80.70;41.78;;;;;;;17.07;100.00;101459.88;4932714;29;20051;-59
2021/06/04 05:08:00;;;;;;;75.47;40.63;;;;;;;16.90;100.00;101455.69;4933270;29;20052;-59
2021/06/04 05:10:27;;;;;;;81.88;42.70;;;;;;;17.11;100.00;101457.59;4933018;29;20423;-59
2021/06/04 05:12:56;;;;;;;80.55;41.88;;;;;;;17.05;100.00;101453.81;4929152;29;20043;-60
2021/06/04 05:15:29;;;;;;;71.80;39.63;;;;;;;17.24;100.00;101456.91;4926882;29;20499;-59
2021/06/04 05:17:57;;;;;;;69.95;38.63;;;;;;;17.39;100.00;101457.69;4933056;29;20062;-60
2021/06/04 05:20:26;;;;;;;76.22;40.13;;;;;;;17.56;100.00;101458.25;4912418;29;20453;-59
2021/06/04 05:22:55;;;;;;;73.85;39.92;;;;;;;17.65;100.00;101453.56;4927475;29;20135;-60
2021/06/04 05:25:26;;;;;;;70.45;37.17;;;;;;;17.43;100.00;101455.44;4933173;29;20046;-59
2021/06/04 05:27:53;;;;;;;76.18;38.75;;;;;;;17.57;100.00;101453.72;4933060;29;20043;-59
2021/06/04 05:30:25;;;;;;;65.55;35.72;;;;;;;17.75;100.00;101450.53;4930462;29;20079;-59
2021/06/04 05:32:53;;;;;;;64.10;35.17;;;;;;;17.55;100.00;101452.03;4929175;29;20107;-59
2021/06/04 05:35:21;;;;;;;62.75;35.72;;;;;;;17.68;100.00;101453.19;4931475;29;20043;-59
2021/06/04 05:37:49;;;;;;;58.63;34.90;;;;;;;17.87;100.00;101460.59;4926089;29;20039;-59
2021/06/04 05:40:19;;;;;;;64.78;33.63;;;;;;;18.15;100.00;101456.28;4928206;29;20130;-59
2021/06/04 05:42:46;;;;;;;62.70;33.70;;;;;;;18.67;100.00;101459.44;4930801;29;20051;-58
2021/06/04 05:45:17;;;;;;;62.85;32.92;;;;;;;18.67;100.00;101463.00;4926582;29;20050;-59
2021/06/04 05:47:47;;;;;;;52.40;28.58;;;;;;;18.89;100.00;101458.31;4935326;29;20037;-59
2021/06/04 05:50:17;;;;;;;53.17;27.60;;;;;;;19.36;100.00;101447.59;4930221;29;20408;-59
2021/06/04 05:52:46;;;;;;;56.92;30.60;;;;;;;19.68;100.00;101455.97;4929749;29;20343;-59
2021/06/04 05:55:15;;;;;;;48.38;28.13;;;;;;;19.88;100.00;101456.00;4929207;29;20044;-59
2021/06/04 05:57:43;;;;;;;55.42;28.90;;;;;;;20.18;100.00;101455.53;4931243;29;20051;-59
2021/06/04 06:00:16;;;;;;;47.55;25.98;;;;;;;20.04;100.00;101456.59;4933775;29;20055;-59
2021/06/04 06:02:46;;;;;;;48.50;27.58;;;;;;;20.25;100.00;101453.66;4934889;29;20042;-59
2021/06/04 06:05:14;;;;;;;50.85;26.50;;;;;;;20.42;100.00;101448.59;4932880;29;20048;-59
2021/06/04 06:07:42;;;;;;;44.92;25.75;;;;;;;20.43;100.00;101452.16;4931070;29;20432;-59
2021/06/04 06:10:11;;;;;;;45.13;26.10;;;;;;;20.43;100.00;101450.25;4931013;29;20046;-60
2021/06/04 06:12:38;;;;;;;49.53;25.40;;;;;;;20.47;100.00;101447.97;4937738;29;20123;-59
2021/06/04 06:15:07;;;;;;;51.60;25.40;;;;;;;20.58;100.00;101454.59;4931854;29;20051;-59
2021/06/04 06:17:35;;;;;;;48.65;26.38;;;;;;;21.38;100.00;101456.94;4932042;29;20059;-59
2021/06/04 06:20:07;;;;;;;52.95;28.40;;;;;;;21.53;100.00;101455.81;4933389;29;20099;-60
2021/06/04 06:22:35;;;;;;;47.00;26.20;;;;;;;22.21;100.00;101457.69;4930804;29;20343;-59
2021/06/04 06:25:05;;;;;;;46.25;26.00;;;;;;;21.85;100.00;101459.31;4936500;29;20047;-59
2021/06/04 06:27:33;;;;;;;45.53;24.35;;;;;;;22.27;100.00;101450.50;4928136;29;20044;-59
2021/06/04 06:30:01;;;;;;;43.15;24.85;;;;;;;22.17;100.00;101451.03;4930486;29;20051;-59
2021/06/04 06:32:28;;;;;;;40.65;25.42;;;;;;;21.80;100.00;101451.81;4932375;29;20334;-59
2021/06/04 06:34:55;;;;;;;47.63;25.38;;;;;;;22.27;100.00;101445.91;4931974;29;20102;-59
2021/06/04 06:37:24;;;;;;;43.03;24.70;;;;;;;23.00;100.00;101446.09;4927680;29;20062;-59
2021/06/04 06:39:52;;;;;;;43.97;24.52;;;;;;;22.62;100.00;101442.59;4932310;29;20574;-59
2021/06/04 06:42:19;;;;;;;37.70;22.00;;;;;;;23.17;100.00;101440.84;4929786;29;20351;-59
2021/06/04 06:44:47;;;;;;;39.88;21.45;;;;;;;22.78;100.00;101437.59;4928880;29;20051;-59
2021/06/04 06:47:14;;;;;;;34.28;21.40;;;;;;;22.64;100.00;101435.06;4927419;29;20102;-59
2021/06/04 06:49:43;;;;;;;40.70;22.20;;;;;;;22.53;100.00;101435.81;4929072;29;20059;-59
2021/06/04 06:52:10;;;;;;;35.38;21.38;;;;;;;22.77;100.00;101446.84;4933098;29;20114;-59
2021/06/04 06:54:41;;;;;;;35.28;20.10;;;;;;;23.32;100.00;101446.69;4928780;29;20052;-59
2021/06/04 06:57:08;;;;;;;36.80;19.70;;;;;;;24.31;100.00;101447.97;4927693;29;20044;-59
2021/06/04 06:59:36;;;;;;;27.58;15.88;;;;;;;24.58;100.00;101447.41;4932889;29;20044;-59
2021/06/04 07:02:06;;;;;;;29.05;16.00;;;;;;;22.44;100.00;101446.19;4926091;29;20040;-59
2021/06/04 07:04:34;;;;;;;26.35;15.23;;;;;;;24.04;100.00;101448.47;4929104;29;20424;-58
2021/06/04 07:07:03;;;;;;;26.13;15.20;;;;;;;23.38;100.00;101447.66;4926436;29;20032;-59
2021/06/04 07:09:30;;;;;;;27.65;14.85;;;;;;;23.44;100.00;101451.34;4933550;29;20274;-59
2021/06/04 07:11:59;;;;;;;25.40;15.82;;;;;;;24.59;100.00;101454.53;4930879;29;20051;-59
2021/06/04 07:14:28;;;;;;;23.48;13.50;;;;;;;25.18;100.00;101461.72;4929214;29;20456;-59
2021/06/04 07:16:56;;;;;;;23.83;14.20;;;;;;;23.67;100.00;101453.28;4931708;29;20047;-59
2021/06/04 07:19:24;;;;;;;24.10;12.85;;;;;;;23.54;100.00;101459.78;4932505;29;20304;-59
2021/06/04 07:21:53;;;;;;;23.00;14.75;;;;;;;23.40;100.00;101474.69;4932436;29;20059;-59
2021/06/04 07:24:22;;;;;;;20.55;13.02;;;;;;;23.45;100.00;101472.91;4934690;29;20613;-58
2021/06/04 07:26:53;;;;;;;22.23;12.57;;;;;;;24.75;100.00;101472.91;4931822;29;20270;-58
2021/06/04 07:29:23;;;;;;;20.98;13.75;;;;;;;25.04;100.00;101472.09;4935267;29;20124;-59
2021/06/04 07:31:51;;;;;;;21.77;13.38;;;;;;;25.24;100.00;101469.72;4932416;29;20059;-60
2021/06/04 07:34:19;;;;;;;23.30;13.07;;;;;;;24.57;100.00;101481.25;4935376;29;20381;-59
2021/06/04 07:36:48;;;;;;;17.17;12.15;;;;;;;24.52;100.00;101475.69;4929361;29;20036;-59
2021/06/04 07:39:18;;;;;;;30.55;14.80;;;;;;;26.16;100.00;101477.81;4933283;29;20050;-59
2021/06/04 07:41:46;;;;;;;23.85;13.02;;;;;;;26.17;100.00;101476.75;4937109;29;20290;-59
2021/06/04 07:44:15;;;;;;;18.92;12.13;;;;;;;25.86;100.00;101476.25;4929590;29;20054;-59
2021/06/04 07:46:46;;;;;;;21.63;13.05;;;;;;;25.18;100.00;101478.91;4930435;29;20050;-59
2021/06/04 07:49:14;;;;;;;20.20;13.35;;;;;;;25.61;100.00;101487.63;4936516;29;20074;-59
2021/06/04 07:51:45;;;;;;;23.65;13.73;;;;;;;25.12;100.00;101485.38;4931315;29;20043;-59
2021/06/04 07:54:13;;;;;;;19.98;13.68;;;;;;;25.71;100.00;101476.84;4927124;29;20051;-59
2021/06/04 07:56:41;;;;;;;21.63;13.68;;;;;;;25.53;100.00;101475.19;4928434;29;20071;-59
2021/06/04 07:59:09;;;;;;;23.98;13.98;;;;;;;27.03;100.00;101475.34;4939511;29;20047;-59
2021/06/04 08:01:40;;;;;;;22.25;14.38;;;;;;;23.68;100.00;101477.56;4934213;29;20044;-59
2021/06/04 08:04:10;;;;;;;24.00;14.07;;;;;;;26.31;100.00;101474.50;4918609;29;20463;-59
2021/06/04 08:06:48;;;;;;;23.05;13.70;;;;;;;26.94;100.00;101472.25;4933323;29;20440;-59
2021/06/04 08:09:15;;;;;;;24.50;13.45;;;;;;;26.88;100.00;101465.06;4935645;29;20393;-59
2021/06/04 08:11:47;;;;;;;23.08;14.18;;;;;;;26.50;100.00;101465.97;4931439;29;20043;-59
2021/06/04 08:14:17;;;;;;;18.27;13.77;;;;;;;25.43;100.00;101464.06;4937275;29;20048;-59
2021/06/04 08:16:46;;;;;;;23.45;15.95;;;;;;;24.23;100.00;101467.44;4931631;29;20039;-59
2021/06/04 08:19:16;;;;;;;24.83;16.95;;;;;;;26.27;100.00;101465.13;4935320;29;20047;-56
2021/06/04 08:21:47;;;;;;;25.05;16.77;;;;;;;26.66;100.00;101458.75;4930630;29;20504;-59
2021/06/04 08:24:17;;;;;;;27.20;17.05;;;;;;;25.77;100.00;101470.38;4931045;29;20102;-59
2021/06/04 08:26:45;;;;;;;22.05;14.40;;;;;;;26.09;100.00;101467.06;4931975;29;20414;-59
2021/06/04 08:29:16;;;;;;;21.95;14.77;;;;;;;26.59;100.00;101470.72;4931888;29;20043;-59
2021/06/04 08:31:44;;;;;;;22.33;14.13;;;;;;;27.31;100.00;101467.97;4927640;29;20051;-59
2021/06/04 08:34:13;;;;;;;22.77;15.07;;;;;;;25.56;100.00;101465.66;4932916;29;20463;-59
2021/06/04 08:36:43;;;;;;;22.88;15.38;;;;;;;25.57;100.00;101464.56;4924021;29;20043;-59
2021/06/04 08:39:16;;;;;;;21.90;12.48;;;;;;;26.03;100.00;101462.59;4931120;29;20344;-59
2021/06/04 08:41:49;;;;;;;22.58;12.85;;;;;;;27.07;100.00;101454.56;4932537;29;20107;-59
2021/06/04 08:44:41;;;;;;;18.73;12.27;;;;;;;27.61;100.00;101458.38;4933784;29;20095;-57
2021/06/04 08:47:14;;;;;;;17.17;11.82;;;;;;;27.12;100.00;101451.88;4932740;29;20036;-57
2021/06/04 08:50:01;;;;;;;17.48;11.70;;;;;;;27.34;100.00;101444.69;4928656;29;20056;-57
2021/06/04 08:52:34;;;;;;;17.27;10.52;;;;;;;28.16;100.00;101448.06;4931625;29;20048;-57
2021/06/04 08:55:10;;;;;;;19.48;13.40;;;;;;;26.90;100.00;101440.97;4928301;29;20455;-57
2021/06/04 08:57:45;;;;;;;24.27;14.55;;;;;;;25.56;100.00;101446.50;4928067;29;20062;-59
2021/06/04 09:00:14;;;;;;;20.58;13.10;;;;;;;25.25;100.00;101444.06;4932768;29;20427;-59
2021/06/04 09:02:46;;;;;;;25.08;13.98;;;;;;;24.78;100.00;101444.31;4933609;29;20291;-59
2021/06/04 09:05:19;;;;;;;21.65;12.88;;;;;;;25.43;100.00;101447.66;4934464;29;20337;-59
2021/06/04 09:07:50;;;;;;;21.10;12.23;;;;;;;26.94;100.00;101449.50;4936453;29;20048;-59
2021/06/04 09:10:25;;;;;;;23.55;12.60;;;;;;;26.34;100.00;101459.44;4934502;29;20114;-58
2021/06/04 09:12:57;;;;;;;19.17;11.32;;;;;;;26.51;100.00;101462.13;4935032;29;20059;-59
2021/06/04 09:15:27;;;;;;;21.13;13.30;;;;;;;26.71;100.00;101462.41;4932203;29;20098;-59
2021/06/04 09:17:59;;;;;;;19.85;14.07;;;;;;;27.02;100.00;101467.38;4931082;29;20183;-58
2021/06/04 09:20:32;;;;;;;23.42;15.15;;;;;;;27.67;100.00;101473.75;4934133;29;20047;-58
2021/06/04 09:23:04;;;;;;;25.60;15.27;;;;;;;26.74;100.00;101472.84;4934994;29;20129;-58
2021/06/04 09:25:34;;;;;;;30.35;17.45;;;;;;;25.98;100.00;101469.88;4930996;29;20036;-58
2021/06/04 09:28:24;;;;;;;25.98;16.02;;;;;;;26.94;100.00;101461.28;4935949;29;20118;-59
2021/06/04 09:30:53;;;;;;;21.85;14.60;;;;;;;27.36;100.00;101461.72;4936912;29;20055;-59
2021/06/04 09:33:24;;;;;;;27.50;16.15;;;;;;;26.92;100.00;101457.16;4932739;29;20050;-59
2021/06/04 09:36:00;;;;;;;28.27;17.75;;;;;;;27.06;100.00;101461.16;4930338;29;20103;-58
2021/06/04 09:38:33;;;;;;;29.85;16.75;;;;;;;26.26;100.00;101455.25;4929402;29;20113;-58
2021/06/04 09:41:18;;;;;;;31.17;16.92;;;;;;;26.66;100.00;101454.09;4931875;29;20044;-59
2021/06/04 09:43:48;;;;;;;24.90;16.50;;;;;;;27.38;100.00;101448.59;4929418;29;20040;-59
2021/06/04 09:46:27;;;;;;;22.50;15.90;;;;;;;28.77;100.00;101453.00;4927196;29;20342;-59
2021/06/04 09:48:56;;;;;;;27.95;17.08;;;;;;;28.32;100.00;101451.69;4933267;29;20083;-58
2021/06/04 09:51:27;;;;;;;27.20;16.23;;;;;;;28.06;100.00;101448.00;4934213;29;20336;-58
2021/06/04 09:53:57;;;;;;;25.60;16.95;;;;;;;29.70;100.00;101442.91;4933563;29;20098;-59
2021/06/04 09:56:28;;;;;;;24.02;17.60;;;;;;;28.56;100.00;101448.50;4930442;29;20043;-59
2021/06/04 09:58:57;;;;;;;24.85;15.48;;;;;;;29.08;100.00;101452.25;4938804;29;20176;-59
2021/06/04 10:01:27;;;;;;;28.35;18.38;;;;;;;30.01;100.00;101447.56;4930723;29;20047;-58
2021/06/04 10:03:58;;;;;;;27.55;16.63;;;;;;;30.01;100.00;101444.81;4934347;29;20074;-59
2021/06/04 10:06:40;;;;;;;27.15;18.25;;;;;;;28.99;100.00;101447.28;4929574;29;20046;-58
2021/06/04 10:09:22;;;;;;;24.55;17.17;;;;;;;29.26;100.00;101448.16;4934782;29;20043;-58
2021/06/04 10:11:59;;;;;;;24.58;16.35;;;;;;;28.96;100.00;101434.09;4932146;29;20059;-58
2021/06/04 10:14:52;;;;;;;30.33;18.02;;;;;;;28.58;100.00;101432.56;4929828;29;20052;-59
2021/06/04 10:17:46;;;;;;;27.45;17.70;;;;;;;28.82;100.00;101414.53;4923652;29;20364;-59
2021/06/04 10:20:39;;;;;;;25.92;17.85;;;;;;;28.08;100.00;101424.66;4936093;29;20044;-58
2021/06/04 10:23:14;;;;;;;26.27;17.85;;;;;;;29.14;100.00;101418.16;4929813;29;20086;-59
2021/06/04 10:25:47;;;;;;;33.50;19.50;;;;;;;25.71;100.00;101411.19;4926221;29;20339;-59
2021/06/04 10:28:38;;;;;;;27.65;17.25;;;;;;;28.52;100.00;101407.84;4932097;29;20331;-59
2021/06/04 10:31:35;;;;;;;30.88;16.75;;;;;;;29.96;100.00;101417.31;4928255;29;20047;-60
2021/06/04 10:34:11;;;;;;;26.83;18.23;;;;;;;29.81;100.00;101405.22;4932189;29;20044;-57
2021/06/04 10:36:41;;;;;;;26.02;17.73;;;;;;;29.48;100.00;101410.19;4932988;29;20050;-59
2021/06/04 10:39:11;;;;;;;28.17;17.92;;;;;;;29.14;100.00;101412.66;4934807;29;20099;-59
2021/06/04 10:41:47;;;;;;;22.63;17.17;;;;;;;29.25;100.00;101419.84;4934738;29;20051;-59
2021/06/04 10:44:20;;;;;;;24.23;18.35;;;;;;;30.16;100.00;101406.22;4940808;29;20062;-59
2021/06/04 10:46:53;;;;;;;24.00;16.42;;;;;;;30.66;100.00;101403.50;4935199;29;20039;-59
2021/06/04 10:49:31;;;;;;;23.58;16.40;;;;;;;30.91;100.00;101393.44;4937862;29;20048;-63
2021/06/04 10:52:00;;;;;;;24.73;16.40;;;;;;;30.98;100.00;101398.63;4934455;29;20059;-59
2021/06/04 10:54:39;;;;;;;27.40;16.95;;;;;;;29.49;100.00;101402.78;4937643;29;20055;-60
2021/06/04 10:57:13;;;;;;;23.80;17.95;;;;;;;26.57;100.00;101396.22;4935604;29;20047;-59
2021/06/04 10:59:48;;;;;;;24.52;18.60;;;;;;;27.68;100.00;101384.09;4935938;29;20048;-59
2021/06/04 11:02:20;;;;;;;22.38;17.33;;;;;;;30.37;100.00;101378.59;4935569;29;20074;-59
2021/06/04 11:05:06;;;;;;;25.52;17.10;;;;;;;26.79;100.00;101377.03;4939441;29;20051;-60
2021/06/04 11:07:38;;;;;;;30.20;17.50;;;;;;;28.91;100.00;101378.28;4934355;29;20047;-59
2021/06/04 11:10:12;;;;;;;27.67;17.15;;;;;;;31.12;100.00;101377.59;4927994;29;20052;-59
2021/06/04 11:13:04;;;;;;;27.83;18.30;;;;;;;30.81;100.00;101375.03;4939377;29;20427;-60
2021/06/04 11:15:44;;;;;;;25.75;16.15;;;;;;;29.49;100.00;101376.09;4938848;29;20066;-59
2021/06/04 11:18:14;;;;;;;22.15;16.08;;;;;;;28.48;100.00;101386.66;4934489;29;20340;-60